Terminal Aerodrome Forecast
Issued by NWS

Home | Current Version | Previous Version | Text Only | Print | Product List | Glossary On
Versions: 1 2 3 4 5 6 7 8 9 10 11 12 13 14 15 16 17 18 19
000
FTUS46 KOTX 251139
TAFCOE
TAF
KCOE 251139Z 2512/2612 20004KT P6SM OVC011
     FM251700 20005KT P6SM BKN025
     FM252000 22007KT P6SM -SHRA SCT035 BKN060
     FM260130 18006KT P6SM SCT050 BKN180
     FM260600 17006KT P6SM SCT050 OVC090
     FM260900 17005KT P6SM -RA SCT025 OVC040=

USA.gov is the U.S. government's official web portal to all federal, state and local government web resources and services.